Main page
METAR-TAF:

METAR-TAF

Airports :

Aberdeen Airport

Aberdeen, Scotland

latitude: 57-12N, longitude: 002-13W, elevation: 65 m

Current weather observation

The report was made 14 minutes ago, at 04:20 UTC
Wind 7 kt from the West/Southwest
Temperature 12°C
Humidity 82%
Pressure 1002 hPa
Visibility 10 km or more

METAR: EGPD 160420Z AUTO 25007KT 9999 NCD 12/09 Q1002 NOSIG

Time: 05:34 (04:34 UTC)

Forecast

The report was made 5 hours and 40 minutes ago, at 22:54 UTC
Forecast valid from 16 at 00 UTC to 16 at 24 UTC
Wind 9 kt from the South/Southwest
Visibility 10 km or more
Few clouds at a height of 4000 ft
Probability 40% :
Temporary
from 16 at 12 UTC to 16 at 20 UTC
Visibility: 7000 m
rain showers

TAF: EGPD 152254Z 1600/1624 21009KT 9999 FEW040 PROB40 TEMPO 1612/1620 7000 SHRA

Weather observations and forecasts of more than 4000 airports (METAR and TAF reports).

The available stations are represented by yellow and red dots on the map.

Hover mouse over dot to see the name of the station.

Then click to see weather observations and forecasts.

To change the map : click on the green buttons with a black cross to zoom in, on the green button with a dash to zoom out, or on the green arrows for adjacent maps.


METAR-TAF: